sensor_id;sensor_type;location;lat;lon;timestamp;temperature;humidity
46458;DHT22;32155;54.076;12.092;2023-11-18T02:12:53;5.90;99.90
46458;DHT22;32155;54.076;12.092;2023-11-18T02:15:22;5.90;99.90
46458;DHT22;32155;54.076;12.092;2023-11-18T02:17:49;5.90;99.90
46458;DHT22;32155;54.076;12.092;2023-11-18T02:20:15;6.00;99.90
46458;DHT22;32155;54.076;12.092;2023-11-18T02:22:45;6.00;99.90
46458;DHT22;32155;54.076;12.092;2023-11-18T02:25:17;6.00;99.90
46458;DHT22;32155;54.076;12.092;2023-11-18T02:27:45;6.00;99.90
46458;DHT22;32155;54.076;12.092;2023-11-18T05:54:52;5.20;99.90
46458;DHT22;32155;54.076;12.092;2023-11-18T05:57:18;5.20;99.90
46458;DHT22;32155;54.076;12.092;2023-11-18T05:59:44;5.30;99.90
46458;DHT22;32155;54.076;12.092;2023-11-18T06:02:13;5.30;99.90
46458;DHT22;32155;54.076;12.092;2023-11-18T06:04:45;5.20;99.90
46458;DHT22;32155;54.076;12.092;2023-11-18T06:07:11;5.30;99.90
46458;DHT22;32155;54.076;12.092;2023-11-18T06:09:40;5.30;99.90
46458;DHT22;32155;54.076;12.092;2023-11-18T06:12:07;5.30;99.90
46458;DHT22;32155;54.076;12.092;2023-11-18T11:57:13;22.30;79.10
46458;DHT22;32155;54.076;12.092;2023-11-18T13:06:38;19.40;88.60
46458;DHT22;32155;54.076;12.092;2023-11-18T13:09:07;19.80;87.20
46458;DHT22;32155;54.076;12.092;2023-11-18T13:18:18;18.40;90.80
46458;DHT22;32155;54.076;12.092;2023-11-18T13:33:42;18.70;90.00
46458;DHT22;32155;54.076;12.092;2023-11-18T13:36:24;18.00;90.70
46458;DHT22;32155;54.076;12.092;2023-11-18T13:38:52;18.20;90.00
46458;DHT22;32155;54.076;12.092;2023-11-18T13:41:28;17.90;90.80
46458;DHT22;32155;54.076;12.092;2023-11-18T13:44:33;16.80;92.20
46458;DHT22;32155;54.076;12.092;2023-11-18T13:50:15;16.20;93.30
46458;DHT22;32155;54.076;12.092;2023-11-18T16:02:03;5.10;99.90
46458;DHT22;32155;54.076;12.092;2023-11-18T16:04:57;5.00;99.90
46458;DHT22;32155;54.076;12.092;2023-11-18T16:08:24;5.00;99.90
46458;DHT22;32155;54.076;12.092;2023-11-18T16:11:31;5.00;99.90
46458;DHT22;32155;54.076;12.092;2023-11-18T16:21:21;4.90;99.90
46458;DHT22;32155;54.076;12.092;2023-11-18T16:23:49;4.90;99.90
46458;DHT22;32155;54.076;12.092;2023-11-18T16:26:17;4.90;99.90
46458;DHT22;32155;54.076;12.092;2023-11-18T16:28:44;5.00;99.90
46458;DHT22;32155;54.076;12.092;2023-11-18T16:31:10;5.00;99.90
46458;DHT22;32155;54.076;12.092;2023-11-18T16:33:36;5.10;99.90
46458;DHT22;32155;54.076;12.092;2023-11-18T16:36:01;5.00;99.90
46458;DHT22;32155;54.076;12.092;2023-11-18T16:38:28;5.10;99.90
46458;DHT22;32155;54.076;12.092;2023-11-18T16:40:54;5.10;99.90
46458;DHT22;32155;54.076;12.092;2023-11-18T16:43:19;5.10;99.90
46458;DHT22;32155;54.076;12.092;2023-11-18T16:45:47;5.10;99.90
46458;DHT22;32155;54.076;12.092;2023-11-18T16:48:13;5.00;99.90
46458;DHT22;32155;54.076;12.092;2023-11-18T16:50:39;5.00;99.90
46458;DHT22;32155;54.076;12.092;2023-11-18T16:53:22;5.00;99.90
46458;DHT22;32155;54.076;12.092;2023-11-18T16:55:58;5.00;99.90
46458;DHT22;32155;54.076;12.092;2023-11-18T16:58:30;4.80;99.90
46458;DHT22;32155;54.076;12.092;2023-11-18T17:00:58;4.80;99.90
46458;DHT22;32155;54.076;12.092;2023-11-18T17:03:25;4.70;99.90
46458;DHT22;32155;54.076;12.092;2023-11-18T17:05:50;4.70;99.90
46458;DHT22;32155;54.076;12.092;2023-11-18T17:08:16;4.70;99.90
46458;DHT22;32155;54.076;12.092;2023-11-18T17:10:54;4.60;99.90
46458;DHT22;32155;54.076;12.092;2023-11-18T17:13:19;4.70;99.90
46458;DHT22;32155;54.076;12.092;2023-11-18T17:15:47;4.70;99.90
46458;DHT22;32155;54.076;12.092;2023-11-18T17:18:13;4.70;99.90
46458;DHT22;32155;54.076;12.092;2023-11-18T17:20:39;4.60;99.90
46458;DHT22;32155;54.076;12.092;2023-11-18T17:23:04;4.60;99.90
46458;DHT22;32155;54.076;12.092;2023-11-18T17:25:30;4.70;99.90
46458;DHT22;32155;54.076;12.092;2023-11-18T17:27:55;4.60;99.90
46458;DHT22;32155;54.076;12.092;2023-11-18T17:30:21;4.70;99.90
46458;DHT22;32155;54.076;12.092;2023-11-18T17:32:47;4.70;99.90
46458;DHT22;32155;54.076;12.092;2023-11-18T17:35:13;4.70;99.90
46458;DHT22;32155;54.076;12.092;2023-11-18T17:37:39;4.70;99.90
46458;DHT22;32155;54.076;12.092;2023-11-18T17:40:05;4.70;99.90
46458;DHT22;32155;54.076;12.092;2023-11-18T17:42:40;4.70;99.90
46458;DHT22;32155;54.076;12.092;2023-11-18T17:45:10;4.70;99.90
46458;DHT22;32155;54.076;12.092;2023-11-18T17:47:38;4.60;99.90
46458;DHT22;32155;54.076;12.092;2023-11-18T17:50:08;4.60;99.90
46458;DHT22;32155;54.076;12.092;2023-11-18T17:52:38;4.70;99.90
46458;DHT22;32155;54.076;12.092;2023-11-18T17:55:06;4.70;99.90
46458;DHT22;32155;54.076;12.092;2023-11-18T17:57:33;4.60;99.90
46458;DHT22;32155;54.076;12.092;2023-11-18T17:59:59;4.70;99.90
46458;DHT22;32155;54.076;12.092;2023-11-18T18:02:25;4.70;99.90
46458;DHT22;32155;54.076;12.092;2023-11-18T18:04:51;4.70;99.90
46458;DHT22;32155;54.076;12.092;2023-11-18T18:07:16;4.60;99.90
46458;DHT22;32155;54.076;12.092;2023-11-18T18:09:42;4.60;99.90
46458;DHT22;32155;54.076;12.092;2023-11-18T18:12:11;4.70;99.90
46458;DHT22;32155;54.076;12.092;2023-11-18T18:14:42;4.70;99.90
46458;DHT22;32155;54.076;12.092;2023-11-18T18:17:08;4.60;99.90
46458;DHT22;32155;54.076;12.092;2023-11-18T18:19:34;4.60;99.90
46458;DHT22;32155;54.076;12.092;2023-11-18T18:21:59;4.60;99.90
46458;DHT22;32155;54.076;12.092;2023-11-18T18:24:27;4.60;99.90
46458;DHT22;32155;54.076;12.092;2023-11-18T18:27:07;4.60;99.90
46458;DHT22;32155;54.076;12.092;2023-11-18T18:29:41;4.70;99.90
46458;DHT22;32155;54.076;12.092;2023-11-18T18:32:06;4.70;99.90
46458;DHT22;32155;54.076;12.092;2023-11-18T18:34:36;4.70;99.90
46458;DHT22;32155;54.076;12.092;2023-11-18T18:37:02;4.70;99.90
46458;DHT22;32155;54.076;12.092;2023-11-18T18:39:29;4.60;99.90
46458;DHT22;32155;54.076;12.092;2023-11-18T18:41:55;4.60;99.90
46458;DHT22;32155;54.076;12.092;2023-11-18T18:44:21;4.50;99.90
46458;DHT22;32155;54.076;12.092;2023-11-18T18:46:46;4.50;99.90
46458;DHT22;32155;54.076;12.092;2023-11-18T18:49:12;4.50;99.90
46458;DHT22;32155;54.076;12.092;2023-11-18T18:51:43;4.50;99.90
46458;DHT22;32155;54.076;12.092;2023-11-18T18:54:11;4.50;99.90
46458;DHT22;32155;54.076;12.092;2023-11-18T18:56:36;4.60;99.90
46458;DHT22;32155;54.076;12.092;2023-11-18T18:59:05;4.50;99.90
46458;DHT22;32155;54.076;12.092;2023-11-18T19:01:39;4.50;99.90
46458;DHT22;32155;54.076;12.092;2023-11-18T19:04:05;4.50;99.90
46458;DHT22;32155;54.076;12.092;2023-11-18T19:06:33;4.50;99.90
46458;DHT22;32155;54.076;12.092;2023-11-18T19:08:58;4.50;99.90
46458;DHT22;32155;54.076;12.092;2023-11-18T19:11:29;4.60;99.90
46458;DHT22;32155;54.076;12.092;2023-11-18T19:14:00;4.60;99.90
46458;DHT22;32155;54.076;12.092;2023-11-18T19:16:26;4.50;99.90
46458;DHT22;32155;54.076;12.092;2023-11-18T19:18:52;4.60;99.90
46458;DHT22;32155;54.076;12.092;2023-11-18T19:21:23;4.60;99.90
46458;DHT22;32155;54.076;12.092;2023-11-18T19:23:54;4.50;99.90
46458;DHT22;32155;54.076;12.092;2023-11-18T19:26:20;4.50;99.90
46458;DHT22;32155;54.076;12.092;2023-11-18T19:28:51;4.50;99.90
46458;DHT22;32155;54.076;12.092;2023-11-18T19:31:20;4.40;99.90
46458;DHT22;32155;54.076;12.092;2023-11-18T19:33:50;4.50;99.90
46458;DHT22;32155;54.076;12.092;2023-11-18T19:36:20;4.40;99.90
46458;DHT22;32155;54.076;12.092;2023-11-18T19:41:22;4.40;99.90
46458;DHT22;32155;54.076;12.092;2023-11-18T19:43:50;4.40;99.90
46458;DHT22;32155;54.076;12.092;2023-11-18T19:46:16;4.40;99.90
46458;DHT22;32155;54.076;12.092;2023-11-18T19:48:45;4.40;99.90
46458;DHT22;32155;54.076;12.092;2023-11-18T19:51:10;4.40;99.90
46458;DHT22;32155;54.076;12.092;2023-11-18T19:53:38;4.30;99.90
46458;DHT22;32155;54.076;12.092;2023-11-18T19:56:04;4.40;99.90
46458;DHT22;32155;54.076;12.092;2023-11-18T19:58:29;4.40;99.90
46458;DHT22;32155;54.076;12.092;2023-11-18T20:00:55;4.30;99.90
46458;DHT22;32155;54.076;12.092;2023-11-18T20:03:21;4.40;99.90
46458;DHT22;32155;54.076;12.092;2023-11-18T20:06:02;4.40;99.90
46458;DHT22;32155;54.076;12.092;2023-11-18T20:08:33;4.40;99.90
46458;DHT22;32155;54.076;12.092;2023-11-18T20:10:58;4.40;99.90
46458;DHT22;32155;54.076;12.092;2023-11-18T20:13:26;4.50;99.90
46458;DHT22;32155;54.076;12.092;2023-11-18T20:15:52;4.40;99.90
46458;DHT22;32155;54.076;12.092;2023-11-18T20:18:19;4.40;99.90
46458;DHT22;32155;54.076;12.092;2023-11-18T20:20:45;4.40;99.90
46458;DHT22;32155;54.076;12.092;2023-11-18T20:23:11;4.40;99.90
46458;DHT22;32155;54.076;12.092;2023-11-18T20:25:38;4.40;99.90
46458;DHT22;32155;54.076;12.092;2023-11-18T20:28:05;4.30;99.90
46458;DHT22;32155;54.076;12.092;2023-11-18T20:30:30;4.30;99.90
46458;DHT22;32155;54.076;12.092;2023-11-18T20:32:58;4.30;99.90
46458;DHT22;32155;54.076;12.092;2023-11-18T20:35:24;4.40;99.90
46458;DHT22;32155;54.076;12.092;2023-11-18T20:37:50;4.40;99.90
46458;DHT22;32155;54.076;12.092;2023-11-18T20:40:16;4.40;99.90
46458;DHT22;32155;54.076;12.092;2023-11-18T20:42:49;4.40;99.90
46458;DHT22;32155;54.076;12.092;2023-11-18T20:45:15;4.40;99.90
46458;DHT22;32155;54.076;12.092;2023-11-18T20:47:43;4.40;99.90
46458;DHT22;32155;54.076;12.092;2023-11-18T20:50:09;4.40;99.90
46458;DHT22;32155;54.076;12.092;2023-11-18T20:52:39;4.50;99.90
46458;DHT22;32155;54.076;12.092;2023-11-18T20:55:05;4.40;99.90
46458;DHT22;32155;54.076;12.092;2023-11-18T20:57:35;4.40;99.90
46458;DHT22;32155;54.076;12.092;2023-11-18T21:00:02;4.50;99.90
46458;DHT22;32155;54.076;12.092;2023-11-18T21:02:29;4.50;99.90
46458;DHT22;32155;54.076;12.092;2023-11-18T21:04:54;4.30;99.90
46458;DHT22;32155;54.076;12.092;2023-11-18T21:07:20;4.30;99.90
46458;DHT22;32155;54.076;12.092;2023-11-18T21:09:45;4.30;99.90
46458;DHT22;32155;54.076;12.092;2023-11-18T21:12:11;4.40;99.90
46458;DHT22;32155;54.076;12.092;2023-11-18T21:14:39;4.40;99.90
46458;DHT22;32155;54.076;12.092;2023-11-18T21:17:14;4.40;99.90
46458;DHT22;32155;54.076;12.092;2023-11-18T21:19:39;4.40;99.90
46458;DHT22;32155;54.076;12.092;2023-11-18T21:22:05;4.40;99.90
46458;DHT22;32155;54.076;12.092;2023-11-18T21:24:31;4.40;99.90
46458;DHT22;32155;54.076;12.092;2023-11-18T21:26:57;4.40;99.90
46458;DHT22;32155;54.076;12.092;2023-11-18T21:29:23;4.40;99.90
46458;DHT22;32155;54.076;12.092;2023-11-18T21:34:27;4.40;99.90
46458;DHT22;32155;54.076;12.092;2023-11-18T21:36:55;4.40;99.90
46458;DHT22;32155;54.076;12.092;2023-11-18T21:39:21;4.50;99.90
46458;DHT22;32155;54.076;12.092;2023-11-18T21:41:48;4.50;99.90
46458;DHT22;32155;54.076;12.092;2023-11-18T21:44:14;4.40;99.90
46458;DHT22;32155;54.076;12.092;2023-11-18T21:46:39;4.40;99.90
46458;DHT22;32155;54.076;12.092;2023-11-18T21:49:05;4.40;99.90
46458;DHT22;32155;54.076;12.092;2023-11-18T21:51:37;4.40;99.90
46458;DHT22;32155;54.076;12.092;2023-11-18T21:54:03;4.50;99.90
46458;DHT22;32155;54.076;12.092;2023-11-18T21:56:34;4.40;99.90
46458;DHT22;32155;54.076;12.092;2023-11-18T21:59:00;4.50;99.90
46458;DHT22;32155;54.076;12.092;2023-11-18T22:01:26;4.50;99.90
46458;DHT22;32155;54.076;12.092;2023-11-18T22:03:52;4.50;99.90
46458;DHT22;32155;54.076;12.092;2023-11-18T22:06:17;4.40;99.90
46458;DHT22;32155;54.076;12.092;2023-11-18T22:08:48;4.40;99.90
46458;DHT22;32155;54.076;12.092;2023-11-18T22:11:14;4.40;99.90
46458;DHT22;32155;54.076;12.092;2023-11-18T22:13:46;4.40;99.90
46458;DHT22;32155;54.076;12.092;2023-11-18T22:16:15;4.40;99.90
46458;DHT22;32155;54.076;12.092;2023-11-18T22:18:41;4.40;99.90
46458;DHT22;32155;54.076;12.092;2023-11-18T22:21:06;4.40;99.90
46458;DHT22;32155;54.076;12.092;2023-11-18T22:23:35;4.40;99.90
46458;DHT22;32155;54.076;12.092;2023-11-18T22:26:00;4.40;99.90
46458;DHT22;32155;54.076;12.092;2023-11-18T22:28:26;4.40;99.90
46458;DHT22;32155;54.076;12.092;2023-11-18T22:30:57;4.50;99.90
46458;DHT22;32155;54.076;12.092;2023-11-18T22:33:23;4.50;99.90
46458;DHT22;32155;54.076;12.092;2023-11-18T22:35:51;4.50;99.90
46458;DHT22;32155;54.076;12.092;2023-11-18T22:38:17;4.40;99.90
46458;DHT22;32155;54.076;12.092;2023-11-18T22:40:42;4.40;99.90
46458;DHT22;32155;54.076;12.092;2023-11-18T22:43:08;4.50;99.90
46458;DHT22;32155;54.076;12.092;2023-11-18T22:45:34;4.40;99.90
46458;DHT22;32155;54.076;12.092;2023-11-18T22:48:02;4.50;99.90
46458;DHT22;32155;54.076;12.092;2023-11-18T22:50:28;4.40;99.90
46458;DHT22;32155;54.076;12.092;2023-11-18T22:52:54;4.40;99.90
46458;DHT22;32155;54.076;12.092;2023-11-18T22:55:23;4.30;99.90
46458;DHT22;32155;54.076;12.092;2023-11-18T22:57:48;4.40;99.90
46458;DHT22;32155;54.076;12.092;2023-11-18T23:00:14;4.40;99.90
46458;DHT22;32155;54.076;12.092;2023-11-18T23:02:57;4.40;99.90
46458;DHT22;32155;54.076;12.092;2023-11-18T23:05:22;4.40;99.90
46458;DHT22;32155;54.076;12.092;2023-11-18T23:07:53;4.40;99.90
46458;DHT22;32155;54.076;12.092;2023-11-18T23:10:21;4.50;99.90
46458;DHT22;32155;54.076;12.092;2023-11-18T23:12:49;4.50;99.90
46458;DHT22;32155;54.076;12.092;2023-11-18T23:15:15;4.50;99.90
46458;DHT22;32155;54.076;12.092;2023-11-18T23:17:42;4.40;99.90
46458;DHT22;32155;54.076;12.092;2023-11-18T23:20:08;4.50;99.90
46458;DHT22;32155;54.076;12.092;2023-11-18T23:23:21;4.50;99.90
46458;DHT22;32155;54.076;12.092;2023-11-18T23:25:30;4.30;99.90
46458;DHT22;32155;54.076;12.092;2023-11-18T23:27:55;4.40;99.90
46458;DHT22;32155;54.076;12.092;2023-11-18T23:30:25;4.50;99.90
46458;DHT22;32155;54.076;12.092;2023-11-18T23:32:51;4.40;99.90
46458;DHT22;32155;54.076;12.092;2023-11-18T23:35:20;4.50;99.90
46458;DHT22;32155;54.076;12.092;2023-11-18T23:37:46;4.40;99.90
46458;DHT22;32155;54.076;12.092;2023-11-18T23:40:12;4.40;99.90
46458;DHT22;32155;54.076;12.092;2023-11-18T23:42:38;4.50;99.90
46458;DHT22;32155;54.076;12.092;2023-11-18T23:45:05;4.50;99.90
46458;DHT22;32155;54.076;12.092;2023-11-18T23:47:32;4.60;99.90
46458;DHT22;32155;54.076;12.092;2023-11-18T23:50:00;4.60;99.90
46458;DHT22;32155;54.076;12.092;2023-11-18T23:52:25;4.60;99.90
46458;DHT22;32155;54.076;12.092;2023-11-18T23:54:51;4.60;99.90
46458;DHT22;32155;54.076;12.092;2023-11-18T23:57:19;4.60;99.90
46458;DHT22;32155;54.076;12.092;2023-11-18T23:59:45;4.60;99.90
